Time;durP1;ratioP1;P1;durP2;ratioP2;P2;SDS_P1;SDS_P2;PMS_P1;PMS_P2;Temp;Humidity;BMP_temperature;BMP_pressure;BME280_temperature;BME280_humidity;BME280_pressure;Samples;Min_cycle;Max_cycle;Signal;HPM_P1;HPM_P2
2022/01/12 00:00:39;;;;;;;66.05;39.20;;;26.40;99.90;;;;;;5081785;28;20092;-73
2022/01/12 00:03:07;;;;;;;54.15;35.60;;;26.30;99.90;;;;;;5097261;28;20020;-71
2022/01/12 00:05:33;;;;;;;59.30;34.65;;;26.30;99.90;;;;;;5096026;28;20489;-71
2022/01/12 00:08:00;;;;;;;70.03;34.58;;;26.40;99.90;;;;;;5078917;28;20901;-71
2022/01/12 00:10:27;;;;;;;70.80;31.88;;;26.50;99.90;;;;;;5079949;28;20540;-75
2022/01/12 00:12:54;;;;;;;63.53;31.52;;;26.50;99.90;;;;;;5083382;28;20024;-73
2022/01/12 00:15:20;;;;;;;57.80;33.92;;;26.60;99.90;;;;;;5077005;28;20032;-71
2022/01/12 00:17:47;;;;;;;56.63;32.17;;;26.60;99.90;;;;;;5076635;28;20427;-72
2022/01/12 00:20:14;;;;;;;49.60;29.65;;;26.70;99.90;;;;;;5076756;28;20469;-71
2022/01/12 00:22:41;;;;;;;48.50;29.00;;;26.70;99.90;;;;;;5088075;28;20036;-74
2022/01/12 00:33:10;;;;;;;46.72;26.58;;;26.90;99.90;;;;;;5095532;28;20032;-72
2022/01/12 00:35:38;;;;;;;;;;;26.80;99.90;;;;;;5097243;28;20042;-71
2022/01/12 00:38:05;;;;;;;43.38;27.42;;;26.90;99.90;;;;;;5096865;28;19914;-71
2022/01/12 00:40:32;;;;;;;45.30;29.05;;;26.90;99.90;;;;;;5082988;28;20020;-71
2022/01/12 00:42:59;;;;;;;48.85;25.50;;;26.80;99.90;;;;;;5077774;28;20401;-71
2022/01/12 00:45:26;;;;;;;50.78;28.70;;;26.90;99.90;;;;;;5079133;28;20025;-72
2022/01/12 00:47:52;;;;;;;51.70;31.85;;;26.90;99.90;;;;;;5086227;28;20107;-71
2022/01/12 00:50:19;;;;;;;51.28;31.55;;;26.90;99.90;;;;;;5085715;28;20027;-69
2022/01/12 00:52:48;;;;;;;42.97;26.35;;;26.90;99.90;;;;;;5083866;28;20028;-70
2022/01/12 00:55:15;;;;;;;137.15;95.13;;;27.00;99.90;;;;;;5085743;28;20473;-70
2022/01/12 00:57:42;;;;;;;50.58;26.80;;;27.10;99.90;;;;;;5084674;28;20081;-71
2022/01/12 01:00:09;;;;;;;40.47;23.23;;;27.10;99.90;;;;;;5087849;28;20042;-70
2022/01/12 01:02:36;;;;;;;123.70;82.03;;;27.20;99.90;;;;;;5079589;28;20016;-70
2022/01/12 01:05:03;;;;;;;46.90;26.45;;;27.30;99.90;;;;;;5085591;28;20030;-70
2022/01/12 01:07:30;;;;;;;42.50;26.83;;;27.40;99.90;;;;;;5084582;28;20024;-72
2022/01/12 01:10:05;;;;;;;48.88;34.85;;;27.40;99.90;;;;;;5086797;28;20031;-71
2022/01/12 01:12:35;;;;;;;48.00;32.50;;;27.50;99.90;;;;;;5088967;28;20028;-72
2022/01/12 01:15:07;;;;;;;52.63;30.17;;;27.60;99.90;;;;;;5084674;28;20074;-72
2022/01/12 01:25:32;;;;;;;49.13;28.48;;;27.70;99.90;;;;;;5085126;28;20021;-73
2022/01/12 01:28:00;;;;;;;50.10;26.42;;;27.70;99.90;;;;;;5082941;28;20024;-72
2022/01/12 01:30:27;;;;;;;52.05;28.33;;;27.70;99.90;;;;;;5084409;28;20036;-71
2022/01/12 01:32:55;;;;;;;44.85;29.63;;;27.80;99.90;;;;;;5082499;28;20028;-72
2022/01/12 01:35:26;;;;;;;63.28;35.80;;;27.80;99.90;;;;;;5084073;28;20119;-72
2022/01/12 01:37:53;;;;;;;98.68;69.70;;;27.80;99.90;;;;;;5085698;28;20035;-70
2022/01/12 01:40:19;;;;;;;74.53;49.40;;;27.80;99.90;;;;;;5095483;28;20028;-71
2022/01/12 01:53:20;;;;;;;87.45;57.47;;;28.20;99.90;;;;;;5078228;28;20054;-72
2022/01/12 01:55:47;;;;;;;46.13;28.27;;;28.30;99.90;;;;;;5076280;28;20041;-72
2022/01/12 01:58:15;;;;;;;42.13;21.50;;;28.30;99.90;;;;;;5081494;28;20016;-72
2022/01/12 02:00:42;;;;;;;40.35;22.48;;;28.30;99.90;;;;;;5095287;28;20024;-72
2022/01/12 02:03:09;;;;;;;38.45;22.40;;;28.40;99.90;;;;;;5094933;28;20028;-71
2022/01/12 02:05:38;;;;;;;43.78;20.55;;;28.50;99.90;;;;;;5094883;28;20350;-73
2022/01/12 02:08:05;;;;;;;33.25;19.63;;;28.70;99.90;;;;;;5093021;28;20057;-73
2022/01/12 02:10:31;;;;;;;31.55;19.08;;;28.70;99.90;;;;;;5085050;28;20020;-73
2022/01/12 02:12:58;;;;;;;28.30;17.67;;;28.80;99.90;;;;;;5074551;28;20021;-74
2022/01/12 02:15:26;;;;;;;91.95;60.42;;;28.80;99.90;;;;;;5075488;28;20028;-73
2022/01/12 02:36:22;;;;;;;33.42;15.82;;;29.00;99.90;;;;;;5059097;28;20059;-72
2022/01/12 02:41:27;;;;;;;34.55;17.90;;;29.10;99.90;;;;;;5080187;28;20097;-72
2022/01/12 02:54:28;;;;;;;27.48;13.90;;;29.30;99.90;;;;;;5094070;28;20028;-72
2022/01/12 02:56:54;;;;;;;23.20;12.35;;;29.40;99.90;;;;;;5092846;28;20051;-72
2022/01/12 02:59:21;;;;;;;21.13;12.10;;;29.50;99.90;;;;;;5078386;28;20044;-73
2022/01/12 03:04:26;;;;;;;27.75;12.60;;;29.50;99.90;;;;;;5088065;28;20081;-75
2022/01/12 03:06:52;;;;;;;24.65;12.52;;;29.60;99.90;;;;;;5083745;28;20054;-73
2022/01/12 03:09:19;;;;;;;19.02;10.30;;;29.60;99.90;;;;;;5078275;28;20020;-73
2022/01/12 03:11:46;;;;;;;24.83;12.98;;;29.70;99.90;;;;;;5093661;28;20016;-73
2022/01/12 03:14:12;;;;;;;25.30;11.38;;;29.80;99.90;;;;;;5089357;28;20031;-72
2022/01/12 03:16:41;;;;;;;27.77;10.75;;;29.90;99.90;;;;;;5084017;28;20032;-76
2022/01/12 03:19:08;;;;;;;22.38;11.88;;;29.90;99.90;;;;;;5092302;28;20027;-76
2022/01/12 03:21:35;;;;;;;22.05;9.27;;;30.00;99.90;;;;;;5080085;28;20024;-76
2022/01/12 03:24:03;;;;;;;24.00;10.18;;;30.10;99.90;;;;;;5081511;28;20031;-71
2022/01/12 03:26:33;;;;;;;17.38;9.57;;;30.10;99.90;;;;;;5081793;28;20023;-72
2022/01/12 03:29:00;;;;;;;22.13;10.00;;;30.20;99.90;;;;;;5088821;28;20050;-71
2022/01/12 03:31:31;;;;;;;21.30;10.23;;;30.20;99.90;;;;;;5074930;28;20021;-72
2022/01/12 03:34:21;;;;;;;25.85;11.73;;;30.20;99.90;;;;;;5080512;28;20060;-73
2022/01/12 03:39:24;;;;;;;20.50;10.20;;;29.90;99.90;;;;;;5082077;28;20464;-72
2022/01/12 03:41:51;;;;;;;21.48;10.23;;;30.00;99.90;;;;;;5073989;28;20016;-72
2022/01/12 03:44:18;;;;;;;22.00;10.63;;;30.20;99.90;;;;;;5075526;28;20028;-72
2022/01/12 03:46:50;;;;;;;24.45;10.77;;;30.30;99.90;;;;;;5089364;28;20074;-72
2022/01/12 03:49:18;;;;;;;21.85;9.48;;;30.50;99.90;;;;;;5088425;28;20052;-73
2022/01/12 03:51:45;;;;;;;17.23;9.68;;;30.60;99.90;;;;;;5086984;28;20564;-73
2022/01/12 03:54:13;;;;;;;24.50;10.48;;;30.60;99.90;;;;;;5084750;28;20051;-77
2022/01/12 03:56:39;;;;;;;17.15;8.82;;;30.70;99.90;;;;;;5059172;28;20078;-73
2022/01/12 03:59:07;;;;;;;14.82;8.73;;;30.80;99.20;;;;;;5086772;28;20070;-74
2022/01/12 04:01:37;;;;;;;29.95;15.95;;;30.70;98.70;;;;;;5079657;28;20020;-77
2022/01/12 04:04:09;;;;;;;18.10;10.60;;;30.60;98.60;;;;;;5091162;28;20474;-69
2022/01/12 04:09:14;;;;;;;19.77;9.68;;;30.70;98.70;;;;;;5092501;28;20024;-70
2022/01/12 04:11:41;;;;;;;18.20;10.10;;;30.70;98.70;;;;;;5084148;28;20036;-69
2022/01/12 04:14:09;;;;;;;15.60;9.43;;;30.90;98.40;;;;;;5077850;28;20035;-70
2022/01/12 04:16:37;;;;;;;20.05;9.18;;;30.80;97.40;;;;;;5082369;28;20020;-70
2022/01/12 04:19:04;;;;;;;20.33;9.95;;;30.60;96.70;;;;;;5088016;28;20489;-70
2022/01/12 04:21:35;;;;;;;14.98;8.30;;;30.60;97.10;;;;;;5081953;28;20103;-71
2022/01/12 04:24:02;;;;;;;22.05;10.52;;;30.70;95.80;;;;;;5091766;28;20020;-71
2022/01/12 04:26:30;;;;;;;21.42;10.05;;;30.90;96.70;;;;;;5091164;28;20044;-72
2022/01/12 04:28:57;;;;;;;18.95;9.75;;;30.80;95.60;;;;;;5091056;28;20020;-69
2022/01/12 04:31:24;;;;;;;15.43;8.25;;;30.80;95.50;;;;;;5090843;28;20032;-71
2022/01/12 04:33:51;;;;;;;16.50;8.40;;;30.70;94.30;;;;;;5096446;28;20055;-73
2022/01/12 04:36:18;;;;;;;17.38;8.60;;;30.70;94.30;;;;;;5094560;28;20103;-72
2022/01/12 04:38:45;;;;;;;17.40;9.68;;;30.90;94.50;;;;;;5085114;28;20016;-72
2022/01/12 04:41:13;;;;;;;39.25;20.48;;;30.90;94.40;;;;;;5086750;28;20016;-71
2022/01/12 04:43:42;;;;;;;30.40;17.50;;;30.90;94.60;;;;;;5089862;28;20030;-72
2022/01/12 04:51:20;;;;;;;16.75;9.85;;;30.90;93.80;;;;;;5086117;28;20032;-74
2022/01/12 04:53:47;;;;;;;18.52;9.25;;;30.80;94.10;;;;;;5076859;28;20419;-72
2022/01/12 04:56:14;;;;;;;24.13;14.25;;;30.80;93.70;;;;;;5077102;28;20021;-70
2022/01/12 04:58:40;;;;;;;31.38;16.27;;;30.80;94.10;;;;;;5078351;28;20060;-72
2022/01/12 05:01:11;;;;;;;30.13;15.48;;;30.90;93.90;;;;;;5075639;28;20024;-74
2022/01/12 05:09:13;;;;;;;14.35;8.32;;;31.20;91.40;;;;;;5078292;28;20028;-72
2022/01/12 05:14:20;;;;;;;15.35;8.90;;;31.40;92.10;;;;;;5091602;28;20482;-74
2022/01/12 05:16:47;;;;;;;14.57;7.80;;;31.40;91.90;;;;;;5079248;28;20032;-74
2022/01/12 05:19:14;;;;;;;16.55;7.90;;;31.50;90.40;;;;;;5076817;28;20020;-74
2022/01/12 05:21:40;;;;;;;13.52;6.93;;;31.70;89.10;;;;;;5091617;28;20021;-73
2022/01/12 05:24:10;;;;;;;21.50;8.10;;;31.80;90.10;;;;;;5077820;28;20055;-74
2022/01/12 05:26:37;;;;;;;16.92;7.25;;;31.70;90.30;;;;;;5078991;28;20027;-72
2022/01/12 05:29:04;;;;;;;13.30;7.57;;;31.80;89.00;;;;;;5093010;28;20028;-75
2022/01/12 05:31:32;;;;;;;14.10;7.72;;;31.70;86.00;;;;;;5076883;28;20033;-75
2022/01/12 05:34:00;;;;;;;15.50;7.65;;;31.50;87.50;;;;;;5074751;28;20436;-74
2022/01/12 05:36:30;;;;;;;17.58;8.00;;;31.50;87.60;;;;;;5082218;28;20028;-73
2022/01/12 05:38:57;;;;;;;20.83;7.93;;;31.50;90.10;;;;;;5085984;28;20369;-75
2022/01/12 05:41:23;;;;;;;19.90;8.93;;;31.50;90.00;;;;;;5074657;28;20027;-73
2022/01/12 05:43:50;;;;;;;26.35;9.57;;;31.50;90.40;;;;;;5077961;28;20012;-73
2022/01/12 05:46:22;;;;;;;25.20;15.82;;;31.50;89.90;;;;;;5075690;28;20419;-75
2022/01/12 05:51:27;;;;;;;45.25;15.38;;;31.40;89.90;;;;;;5075623;28;20032;-72
2022/01/12 05:53:54;;;;;;;49.45;21.58;;;31.40;90.20;;;;;;5094881;28;20036;-73
2022/01/12 05:56:21;;;;;;;19.33;9.57;;;31.40;90.70;;;;;;5091918;28;20027;-75
2022/01/12 05:58:49;;;;;;;16.15;7.75;;;31.40;90.40;;;;;;5083828;28;20048;-74
2022/01/12 06:01:17;;;;;;;37.08;10.85;;;31.40;90.10;;;;;;5073986;28;20534;-73
2022/01/12 06:03:44;;;;;;;22.05;9.20;;;31.40;90.90;;;;;;5075617;28;20028;-73
2022/01/12 06:06:11;;;;;;;25.95;8.77;;;31.40;90.60;;;;;;5085807;28;20036;-74
2022/01/12 06:08:37;;;;;;;27.80;9.57;;;31.40;90.90;;;;;;5060959;28;20112;-74
2022/01/12 06:11:04;;;;;;;15.57;8.20;;;31.40;91.00;;;;;;5090440;28;20526;-73
2022/01/12 06:13:31;;;;;;;24.15;9.93;;;31.40;90.60;;;;;;5093858;28;20047;-73
2022/01/12 06:15:57;;;;;;;21.13;8.48;;;31.50;91.00;;;;;;5079696;28;20060;-72
2022/01/12 06:18:24;;;;;;;17.75;8.40;;;31.40;90.40;;;;;;5086305;28;20039;-73
2022/01/12 06:20:51;;;;;;;19.13;9.48;;;31.50;90.90;;;;;;5087759;28;20099;-72
2022/01/12 06:23:18;;;;;;;19.23;8.82;;;31.50;90.60;;;;;;5094316;28;20031;-73
2022/01/12 06:25:44;;;;;;;15.38;8.07;;;31.50;91.30;;;;;;5081142;28;20096;-73
2022/01/12 06:28:37;;;;;;;15.25;8.25;;;31.70;90.80;;;;;;5081061;28;20525;-74
2022/01/12 06:33:44;;;;;;;12.38;8.10;;;31.70;89.80;;;;;;5088702;28;20028;-71
2022/01/12 06:36:13;;;;;;;15.00;8.27;;;31.80;88.50;;;;;;5087788;28;20035;-72
2022/01/12 06:38:40;;;;;;;12.18;7.45;;;32.00;86.40;;;;;;5078518;28;20031;-71
2022/01/12 06:41:07;;;;;;;19.05;7.60;;;32.10;87.70;;;;;;5083288;28;20016;-74
2022/01/12 06:43:35;;;;;;;12.77;7.93;;;32.10;86.50;;;;;;5074621;28;20051;-73
2022/01/12 06:46:03;;;;;;;15.55;7.80;;;32.30;86.60;;;;;;5074688;28;20060;-74
2022/01/12 06:48:31;;;;;;;14.30;7.85;;;32.20;85.60;;;;;;5078196;28;20432;-74
2022/01/12 06:50:57;;;;;;;17.50;8.32;;;32.00;85.70;;;;;;5081607;28;20028;-70
2022/01/12 06:53:24;;;;;;;22.23;9.45;;;32.00;88.30;;;;;;5073529;28;20032;-72
2022/01/12 06:55:51;;;;;;;15.10;7.93;;;32.00;88.80;;;;;;5074438;28;20029;-74
2022/01/12 06:58:19;;;;;;;17.63;9.30;;;32.10;87.80;;;;;;5085609;28;20556;-73
2022/01/12 07:00:47;;;;;;;19.10;9.73;;;32.10;87.40;;;;;;5076353;28;20028;-71
2022/01/12 07:03:14;;;;;;;16.65;8.98;;;32.10;86.90;;;;;;5091869;28;20039;-69
2022/01/12 07:05:41;;;;;;;16.25;8.25;;;32.20;87.00;;;;;;5081634;28;20032;-72
2022/01/12 07:08:08;;;;;;;17.67;8.60;;;32.30;84.50;;;;;;5089169;28;20469;-73
2022/01/12 07:10:34;;;;;;;19.08;9.48;;;32.30;85.50;;;;;;5093507;28;20031;-73
2022/01/12 07:13:01;;;;;;;15.25;8.82;;;32.30;84.90;;;;;;5092308;28;20024;-73
2022/01/12 07:15:28;;;;;;;15.45;8.15;;;32.30;83.60;;;;;;5082280;28;20082;-72
2022/01/12 07:17:54;;;;;;;17.15;7.93;;;32.30;82.90;;;;;;5084486;28;20021;-73
2022/01/12 07:20:21;;;;;;;15.00;7.60;;;32.20;83.30;;;;;;5084363;28;20437;-73
2022/01/12 07:22:47;;;;;;;14.18;6.90;;;32.10;84.80;;;;;;5081337;28;20021;-73
2022/01/12 07:25:14;;;;;;;19.70;9.30;;;32.20;83.70;;;;;;5077931;28;20048;-73
2022/01/12 07:27:41;;;;;;;16.67;8.80;;;32.30;85.00;;;;;;5087106;28;20020;-75
2022/01/12 07:30:08;;;;;;;17.33;7.97;;;32.40;84.50;;;;;;5093243;28;20073;-73
2022/01/12 07:32:35;;;;;;;14.52;7.75;;;32.40;83.10;;;;;;5073390;28;20032;-75
2022/01/12 07:35:02;;;;;;;17.88;7.82;;;32.30;85.50;;;;;;5074492;28;20239;-72
2022/01/12 07:37:29;;;;;;;22.30;8.63;;;32.20;83.50;;;;;;5085366;28;20512;-72
2022/01/12 07:39:56;;;;;;;21.33;8.52;;;32.20;83.90;;;;;;5093531;28;20069;-76
2022/01/12 07:42:23;;;;;;;15.13;7.80;;;32.20;84.60;;;;;;5086224;28;20384;-73
2022/01/12 07:44:58;;;;;;;23.67;9.45;;;32.10;84.90;;;;;;5097729;28;20028;-73
2022/01/12 07:47:28;;;;;;;14.93;8.68;;;32.10;85.60;;;;;;5082098;28;20027;-73
2022/01/12 07:49:56;;;;;;;18.23;9.10;;;32.00;84.20;;;;;;5102592;28;20081;-73
2022/01/12 07:52:23;;;;;;;16.30;8.55;;;32.00;84.20;;;;;;5100783;28;20028;-73
2022/01/12 07:54:50;;;;;;;20.27;8.55;;;32.00;85.40;;;;;;5096201;28;20027;-73
2022/01/12 07:57:17;;;;;;;14.63;8.32;;;32.00;85.90;;;;;;5080132;28;20057;-74
2022/01/12 07:59:45;;;;;;;18.63;9.23;;;31.90;86.20;;;;;;5086319;28;20476;-74
2022/01/12 08:02:12;;;;;;;23.42;9.38;;;31.90;86.40;;;;;;5084656;28;20017;-73
2022/01/12 08:04:39;;;;;;;20.13;10.18;;;31.80;87.00;;;;;;5074536;28;20028;-75
2022/01/12 08:07:07;;;;;;;20.58;9.65;;;31.90;86.80;;;;;;5080686;28;20073;-74
2022/01/12 08:09:35;;;;;;;22.85;10.73;;;32.00;85.90;;;;;;5089853;28;20040;-76
2022/01/12 08:12:02;;;;;;;22.02;10.20;;;32.00;86.00;;;;;;5081659;28;20035;-74
2022/01/12 08:14:28;;;;;;;19.80;9.52;;;31.90;87.10;;;;;;5077276;28;20477;-75
2022/01/12 08:16:55;;;;;;;19.85;9.00;;;32.00;85.80;;;;;;5081217;28;20107;-75
2022/01/12 08:19:23;;;;;;;17.88;9.02;;;32.00;86.30;;;;;;5083251;28;20028;-73
2022/01/12 08:21:50;;;;;;;44.03;24.23;;;32.00;86.10;;;;;;5093410;28;20020;-72
2022/01/12 08:24:17;;;;;;;13.55;8.25;;;32.00;85.70;;;;;;5097218;28;20091;-73
2022/01/12 08:26:44;;;;;;;56.83;42.28;;;32.00;84.90;;;;;;5094690;28;20507;-73
2022/01/12 08:29:14;;;;;;;74.00;47.08;;;32.00;83.50;;;;;;5086095;28;20032;-73
2022/01/12 08:31:42;;;;;;;52.05;31.15;;;32.00;83.70;;;;;;5088930;28;20103;-75
2022/01/12 08:34:10;;;;;;;54.05;38.38;;;32.00;85.10;;;;;;5080130;28;20035;-72
2022/01/12 08:36:41;;;;;;;26.60;15.30;;;32.00;85.10;;;;;;5082512;28;20031;-71
2022/01/12 08:39:09;;;;;;;18.73;9.77;;;31.90;83.90;;;;;;5086099;28;20051;-73
2022/01/12 08:41:37;;;;;;;27.88;11.20;;;31.90;83.70;;;;;;5086942;28;20036;-77
2022/01/12 08:44:06;;;;;;;20.02;9.25;;;32.00;84.70;;;;;;5083274;28;20016;-74
2022/01/12 08:46:33;;;;;;;26.98;11.00;;;32.00;85.40;;;;;;5086756;28;20707;-75
2022/01/12 08:48:59;;;;;;;19.08;10.35;;;31.90;85.10;;;;;;5095037;28;20042;-76
2022/01/12 08:51:26;;;;;;;24.10;10.15;;;31.90;83.20;;;;;;5098014;28;20098;-77
2022/01/12 08:53:53;;;;;;;31.92;14.90;;;31.90;84.40;;;;;;5098849;28;20388;-71
2022/01/12 08:56:19;;;;;;;18.58;8.57;;;32.00;84.10;;;;;;5100432;28;20020;-77
2022/01/12 08:58:47;;;;;;;195.30;164.93;;;32.00;84.80;;;;;;5076701;28;20438;-73
2022/01/12 09:01:14;;;;;;;89.25;56.10;;;32.00;84.90;;;;;;5059398;28;20060;-73
2022/01/12 09:03:41;;;;;;;74.38;49.00;;;32.00;85.60;;;;;;5065863;28;20485;-74
2022/01/12 09:06:08;;;;;;;34.30;18.83;;;32.00;84.70;;;;;;5064421;28;20028;-77
2022/01/12 09:08:38;;;;;;;15.95;7.63;;;31.90;86.20;;;;;;5067473;28;20029;-75
2022/01/12 09:11:05;;;;;;;70.40;40.40;;;31.60;86.70;;;;;;5067243;28;20025;-75
2022/01/12 09:13:32;;;;;;;41.13;12.82;;;30.80;90.40;;;;;;5056268;28;20032;-69
2022/01/12 10:07:14;;;;;;;42.83;26.80;;;28.40;99.90;;;;;;5108448;27;20397;-73
2022/01/12 10:09:46;;;;;;;34.22;22.63;;;28.30;99.90;;;;;;5094622;28;20024;-73
2022/01/12 10:12:13;;;;;;;;;;;28.40;99.90;;;;;;5095341;28;20050;-72
2022/01/12 10:14:45;;;;;;;253.73;152.10;;;28.50;99.90;;;;;;5090324;28;19943;-69
2022/01/12 10:17:13;;;;;;;89.68;59.20;;;28.60;99.90;;;;;;5083708;28;20475;-71
2022/01/12 10:19:40;;;;;;;37.22;25.05;;;28.70;99.90;;;;;;5087397;28;20489;-74
2022/01/12 10:22:10;;;;;;;27.70;18.38;;;28.70;99.90;;;;;;5090332;28;20032;-74
2022/01/12 10:24:39;;;;;;;59.92;37.95;;;28.80;99.90;;;;;;5086237;28;20494;-75
2022/01/12 10:27:18;;;;;;;26.48;18.95;;;28.80;99.90;;;;;;5089941;28;20143;-73
2022/01/12 10:29:47;;;;;;;36.08;20.05;;;28.80;99.90;;;;;;5089533;28;20055;-77
2022/01/12 10:32:18;;;;;;;34.70;21.95;;;28.80;99.90;;;;;;5090255;28;20035;-77
2022/01/12 10:34:47;;;;;;;37.15;24.15;;;28.90;99.90;;;;;;5090382;28;20021;-74
2022/01/12 10:37:17;;;;;;;50.03;25.90;;;28.90;99.90;;;;;;5120922;28;20440;-76
2022/01/12 10:39:49;;;;;;;42.60;25.85;;;28.90;99.90;;;;;;5090132;28;20043;-78
2022/01/12 10:42:27;;;;;;;45.22;33.20;;;28.90;99.90;;;;;;5110801;28;20074;-76
2022/01/12 10:44:57;;;;;;;50.30;35.30;;;28.90;99.90;;;;;;5109638;28;20441;-73
2022/01/12 10:47:25;;;;;;;60.15;36.83;;;28.90;99.90;;;;;;5110800;28;20019;-69
2022/01/12 10:49:54;;;;;;;48.72;29.98;;;28.80;99.90;;;;;;5110553;28;20106;-70
2022/01/12 10:52:23;;;;;;;45.17;28.05;;;28.80;99.90;;;;;;5110297;28;20078;-70
2022/01/12 10:54:55;;;;;;;39.55;26.25;;;28.90;99.90;;;;;;5109979;28;20153;-70
2022/01/12 10:57:29;;;;;;;47.88;24.52;;;28.80;99.90;;;;;;5109780;28;20012;-70
2022/01/12 11:00:18;;;;;;;39.45;23.63;;;28.80;99.90;;;;;;5109687;28;20480;-69
2022/01/12 11:02:47;;;;;;;35.60;22.30;;;28.90;99.90;;;;;;5110249;28;20106;-71
2022/01/12 11:05:15;;;;;;;83.25;52.92;;;28.80;99.90;;;;;;5115318;28;20078;-72
2022/01/12 11:07:42;;;;;;;45.40;25.45;;;28.80;99.90;;;;;;5124277;28;20024;-72
2022/01/12 11:10:10;;;;;;;71.28;43.55;;;28.80;99.90;;;;;;5128785;27;20487;-71
2022/01/12 11:12:39;;;;;;;85.05;54.88;;;28.80;99.90;;;;;;5110148;28;20027;-70
2022/01/12 11:15:11;;;;;;;56.20;36.90;;;28.80;99.90;;;;;;5108516;28;20042;-71
2022/01/12 11:17:40;;;;;;;58.88;32.22;;;28.80;99.90;;;;;;5095597;28;20028;-71
2022/01/12 11:20:18;;;;;;;47.22;28.13;;;28.80;99.90;;;;;;5112836;28;20519;-70
2022/01/12 11:23:05;;;;;;;44.63;27.23;;;28.80;99.90;;;;;;5098661;28;20473;-69
2022/01/12 11:25:44;;;;;;;39.05;25.00;;;28.70;99.90;;;;;;5088026;28;20036;-71
2022/01/12 11:28:19;;;;;;;42.30;24.73;;;28.70;99.90;;;;;;5096069;28;20526;-71
2022/01/12 11:31:00;;;;;;;100.22;70.68;;;28.80;99.90;;;;;;5075966;28;20450;-69
2022/01/12 11:33:30;;;;;;;71.05;47.08;;;28.70;99.90;;;;;;5092922;28;20122;-69
2022/01/12 11:36:02;;;;;;;58.15;36.30;;;28.80;99.90;;;;;;5095915;28;20469;-70
2022/01/12 11:38:34;;;;;;;57.85;35.83;;;28.80;99.90;;;;;;5099060;28;20028;-70
2022/01/12 11:41:17;;;;;;;53.28;31.45;;;28.70;99.90;;;;;;5090196;28;20040;-71
2022/01/12 11:43:52;;;;;;;52.72;36.95;;;28.80;99.90;;;;;;5095211;28;20140;-73
2022/01/12 11:46:23;;;;;;;48.00;26.65;;;28.70;99.90;;;;;;5095558;28;20034;-74
2022/01/12 11:48:52;;;;;;;47.40;28.08;;;28.70;99.90;;;;;;5095178;28;20463;-69
2022/01/12 11:51:32;;;;;;;45.08;27.02;;;28.70;99.90;;;;;;5095924;28;20404;-70
2022/01/12 11:54:08;;;;;;;59.45;31.77;;;28.70;99.90;;;;;;5095619;28;20030;-70
2022/01/12 11:56:35;;;;;;;64.80;37.88;;;28.70;99.90;;;;;;5095695;28;20024;-73
2022/01/12 11:59:09;;;;;;;65.63;37.20;;;28.70;99.90;;;;;;5095189;28;20066;-71
2022/01/12 12:01:44;;;;;;;69.30;39.13;;;28.70;99.90;;;;;;5095093;28;20464;-69
2022/01/12 12:04:26;;;;;;;63.10;37.55;;;28.70;99.90;;;;;;5095493;28;20031;-71
2022/01/12 12:07:04;;;;;;;76.47;47.08;;;28.70;99.90;;;;;;5095318;28;20055;-71
2022/01/12 12:09:38;;;;;;;75.93;43.30;;;28.70;99.90;;;;;;5095375;28;20020;-69
2022/01/12 12:12:19;;;;;;;70.82;35.63;;;28.60;99.90;;;;;;5094969;28;20031;-73
2022/01/12 12:14:49;;;;;;;82.35;34.47;;;28.60;99.90;;;;;;5095070;28;20073;-70
2022/01/12 12:17:18;;;;;;;69.97;32.85;;;28.60;99.90;;;;;;5091879;28;20121;-69
2022/01/12 12:19:46;;;;;;;63.58;32.03;;;28.60;99.90;;;;;;5085743;28;20535;-69
2022/01/12 12:22:17;;;;;;;66.25;30.45;;;28.60;99.90;;;;;;5091088;28;20532;-68
2022/01/12 12:24:46;;;;;;;66.05;32.85;;;28.50;99.90;;;;;;5094950;28;20031;-70
2022/01/12 12:27:19;;;;;;;68.97;34.05;;;28.50;99.90;;;;;;5096109;28;20140;-70
2022/01/12 12:29:48;;;;;;;69.85;38.28;;;28.50;99.90;;;;;;5086806;28;20377;-69
2022/01/12 12:32:19;;;;;;;88.68;50.95;;;28.50;99.90;;;;;;5078780;28;20162;-69
2022/01/12 12:34:47;;;;;;;96.38;53.55;;;28.50;99.90;;;;;;5095933;28;20481;-68
2022/01/12 12:37:17;;;;;;;99.90;52.40;;;28.40;99.90;;;;;;5094113;28;20058;-69
2022/01/12 12:39:47;;;;;;;100.65;51.13;;;28.40;99.90;;;;;;5093196;28;20468;-70
2022/01/12 12:42:19;;;;;;;93.63;52.05;;;28.40;99.90;;;;;;5095056;28;20031;-69
2022/01/12 12:44:46;;;;;;;;;;;28.40;99.90;;;;;;5087737;28;20028;-70
2022/01/12 12:47:16;;;;;;;90.03;51.83;;;28.40;99.90;;;;;;5079986;28;20297;-69
2022/01/12 12:49:57;;;;;;;91.75;53.72;;;28.40;99.90;;;;;;5093247;28;20028;-69
2022/01/12 12:52:27;;;;;;;90.20;57.37;;;28.40;99.90;;;;;;5085456;28;20488;-69
2022/01/12 12:54:55;;;;;;;84.72;55.20;;;28.30;99.90;;;;;;5090799;28;20078;-68
2022/01/12 12:57:22;;;;;;;87.50;55.38;;;28.40;99.90;;;;;;5086874;28;20473;-69
2022/01/12 13:00:04;;;;;;;93.75;54.90;;;28.30;99.90;;;;;;5084798;28;20544;-71
2022/01/12 13:02:38;;;;;;;;;;;28.40;99.90;;;;;;5091045;28;20035;-71
2022/01/12 13:05:07;;;;;;;70.22;45.10;;;28.30;99.90;;;;;;5086984;28;20359;-69
2022/01/12 13:07:39;;;;;;;71.50;46.15;;;28.30;99.90;;;;;;5088833;28;20028;-69
2022/01/12 13:10:13;;;;;;;86.78;44.08;;;28.30;99.90;;;;;;5077950;28;20025;-70
2022/01/12 13:12:41;;;;;;;71.22;43.30;;;28.30;99.90;;;;;;5074189;28;20028;-70
2022/01/12 13:15:11;;;;;;;73.95;43.45;;;28.30;99.90;;;;;;5092543;28;20043;-70
2022/01/12 13:17:40;;;;;;;71.97;41.85;;;28.30;99.90;;;;;;5094202;28;20085;-69
2022/01/12 13:22:46;;;;;;;75.55;43.95;;;28.30;99.90;;;;;;5093747;28;20103;-70
2022/01/12 13:25:16;;;;;;;71.93;44.60;;;28.30;99.90;;;;;;5093413;28;20031;-70
2022/01/12 13:27:45;;;;;;;78.10;43.75;;;28.30;99.90;;;;;;5093705;28;20476;-69
2022/01/12 13:30:25;;;;;;;64.40;36.20;;;28.30;99.90;;;;;;5093463;28;20038;-69
2022/01/12 13:32:54;;;;;;;56.10;35.17;;;28.30;99.90;;;;;;5074663;28;20069;-70
2022/01/12 13:35:34;;;;;;;49.80;33.35;;;28.30;99.90;;;;;;5091863;28;20027;-69
2022/01/12 13:38:03;;;;;;;53.45;30.55;;;28.30;99.90;;;;;;5089619;28;20032;-69
2022/01/12 13:40:36;;;;;;;49.35;31.73;;;28.20;99.90;;;;;;5093398;28;20107;-70
2022/01/12 13:43:03;;;;;;;59.72;36.10;;;28.20;99.90;;;;;;5075949;28;20029;-69
2022/01/12 13:45:40;;;;;;;64.57;41.15;;;28.20;99.90;;;;;;5090972;28;20050;-69
2022/01/12 13:48:14;;;;;;;92.97;51.50;;;28.20;99.90;;;;;;5091483;28;20115;-70
2022/01/12 13:50:47;;;;;;;113.40;53.72;;;28.20;99.90;;;;;;5094452;28;20533;-72
2022/01/12 13:53:13;;;;;;;100.10;46.70;;;28.10;99.90;;;;;;5093155;28;20056;-69
2022/01/12 13:55:53;;;;;;;89.25;41.15;;;28.00;99.90;;;;;;5093659;28;20027;-70
2022/01/12 13:58:25;;;;;;;76.35;35.85;;;27.90;99.90;;;;;;5092321;28;20289;-70
2022/01/12 14:01:07;;;;;;;67.10;32.97;;;27.70;99.90;;;;;;5084219;28;20044;-69
2022/01/12 14:03:44;;;;;;;58.83;31.08;;;27.60;99.90;;;;;;5085201;28;20077;-70
2022/01/12 14:06:20;;;;;;;48.88;27.95;;;27.60;99.90;;;;;;5093586;28;20474;-70
2022/01/12 14:08:53;;;;;;;46.40;26.23;;;27.50;99.90;;;;;;5091564;28;20484;-70
2022/01/12 14:11:20;;;;;;;42.28;25.77;;;27.40;99.90;;;;;;5093309;28;20034;-71
2022/01/12 14:13:48;;;;;;;45.45;25.75;;;27.40;99.90;;;;;;5091202;28;20417;-70
2022/01/12 14:16:16;;;;;;;37.67;23.23;;;27.50;99.90;;;;;;5093283;28;20031;-71
2022/01/12 14:18:43;;;;;;;37.35;23.35;;;27.50;99.90;;;;;;5092064;28;20100;-70
2022/01/12 14:21:20;;;;;;;36.97;24.55;;;27.50;99.90;;;;;;5092693;28;20035;-71
2022/01/12 14:23:47;;;;;;;31.05;21.73;;;27.60;99.90;;;;;;5092917;28;20032;-71
2022/01/12 14:26:30;;;;;;;33.88;21.77;;;27.60;99.90;;;;;;5093261;28;20024;-68
2022/01/12 14:28:58;;;;;;;37.58;22.58;;;27.60;99.90;;;;;;5093225;28;20024;-68
2022/01/12 14:31:25;;;;;;;32.33;21.08;;;27.60;99.90;;;;;;5093378;28;20031;-68
2022/01/12 14:33:53;;;;;;;39.65;23.80;;;27.60;99.90;;;;;;5092871;28;20113;-68
2022/01/12 14:36:20;;;;;;;35.47;21.27;;;27.60;99.90;;;;;;5093531;28;20028;-68
2022/01/12 14:38:47;;;;;;;34.70;22.60;;;27.70;99.90;;;;;;5093557;28;20362;-69
2022/01/12 14:41:14;;;;;;;38.25;26.88;;;27.60;99.90;;;;;;5093283;28;20032;-67
2022/01/12 14:43:41;;;;;;;36.90;25.63;;;27.70;99.90;;;;;;5092819;28;20055;-70
2022/01/12 14:46:08;;;;;;;51.00;36.10;;;27.80;99.90;;;;;;5092995;28;20106;-69
2022/01/12 14:48:35;;;;;;;51.42;31.52;;;27.80;99.90;;;;;;5092749;28;20026;-68
2022/01/12 14:51:02;;;;;;;46.58;30.67;;;27.80;99.90;;;;;;5092573;28;20099;-66
2022/01/12 14:53:28;;;;;;;49.20;30.85;;;27.90;99.90;;;;;;5096477;28;20030;-68
2022/01/12 14:55:58;;;;;;;44.97;29.77;;;27.80;99.90;;;;;;5096398;28;20427;-72
2022/01/12 14:58:27;;;;;;;43.45;28.67;;;27.90;99.90;;;;;;5091947;28;20032;-68